AirSardinia Virtual Manager

AirSardinia Virtual La prima compagnia sarda di volo simulato




 METAR AND TAF INFORMATION
METAR FOR LIEO
ADDS - METARS form results

(1400 UTC 18 August 2019)
Data provider http://aviationweather.gov/metar/data/
 
METAR text: LIEO 181350Z 09011KT 060V130 CAVOK 31/21 Q1015
Conditions at: LIEO (OLBIA/COSTA SMER, IT) observed 1350 UTC 18 August 2019
Temperature: 31.0°C (88°F)
Dewpoint: 21.0°C (70°F) [RH = 55%]
Pressure (altimeter): 29.97 inches Hg (1015.0 mb)
Winds: from the E (90 degrees) at 13 MPH (11 knots; 5.7 m/s)
Visibility: 6 or more miles (10+ km)
Ceiling: ceiling and visibility are OK
Clouds: unknown
Weather: no significant weather observed at this time

METAR text: LIEO 181320Z 09013KT CAVOK 31/20 Q1015
Conditions at: LIEO (OLBIA/COSTA SMER, IT) observed 1320 UTC 18 August 2019
Temperature: 31.0°C (88°F)
Dewpoint: 20.0°C (68°F) [RH = 52%]
Pressure (altimeter): 29.97 inches Hg (1015.0 mb)
Winds: from the E (90 degrees) at 15 MPH (13 knots; 6.7 m/s)
Visibility: 6 or more miles (10+ km)
Ceiling: ceiling and visibility are OK
Clouds: unknown
Weather: no significant weather observed at this time

Forecast for: LIEO (OLBIA/COSTA SMER, IT)
Text: TAF LIEO 181100Z 1812/1912 06012KT CAVOK
Forecast period: 1200 to 1800 UTC 18 August 2019
Forecast type: FROM: standard forecast or significant change
Winds: from the ENE (60 degrees) at 14 MPH (12 knots; 6.2 m/s)
Visibility: 6 or more miles 10+ km)
Ceiling: unknown
Clouds: missing
Weather: NSW  (no significant weather)
Text: BECMG 1818/1820 VRB04KT
Forecast period: 1800 UTC 18 August 2019 to 0800 UTC 19 August 2019
Forecast type: BECOMING: Conditions expected to become as follows by 2000 UTC 18 August 2019
Winds: variable direction winds at 5 MPH (4 knots; 2.1 m/s)
Visibility: 6 or more miles 10+ km)
Ceiling: unknown
Clouds: missing
Weather: NSW  (no significant weather)
Text: BECMG 1908/1910 06012KT
Forecast period: 0800 to 1200 UTC 19 August 2019
Forecast type: BECOMING: Conditions expected to become as follows by 1000 UTC 19 August 2019
Winds: from the ENE (60 degrees) at 14 MPH (12 knots; 6.2 m/s)
Visibility: 6 or more miles 10+ km)
Ceiling: unknown
Clouds: missing
Weather: NSW  (no significant weather)

 AIRPORT MAP

 RUNWAY INFORMATION
Runway 05 Runway length 8025 ft Runway width 148 ft
Runway elevation 35 ft Runway displaced threshold 805 ft Runway heading 53
Runway 23 Runway length 8025 ft Runway width 148 ft
Runway elevation 19 ft Runway displaced threshold 495 ft Runway heading 233

 AIRPORT FREQUENCIES
Type APP Name OLBIA RADA Frequency 125.95 MHz
Type ATIS Name ATIS Frequency 113.9 MHz
Type TWR Name OLBIA TWR Frequency 118.975 MHz

 AIRPORT NEAR NAVIGATION AIDS
Type VOR-DME Name Olbia Costa Smeralda Frequency 113.9 MHz
Type NDB Name Olbia Costa Smeralda Frequency 357 kHz